sensor_id;sensor_type;location;lat;lon;timestamp;temperature;humidity
20398;DHT22;10358;49.590;11.030;2024-02-15T00:00:10;8.70;99.90
20398;DHT22;10358;49.590;11.030;2024-02-15T00:02:35;8.70;99.90
20398;DHT22;10358;49.590;11.030;2024-02-15T00:05:01;8.70;99.90
20398;DHT22;10358;49.590;11.030;2024-02-15T00:07:27;8.70;99.90
20398;DHT22;10358;49.590;11.030;2024-02-15T00:09:52;8.70;99.90
20398;DHT22;10358;49.590;11.030;2024-02-15T00:12:19;8.70;99.90
20398;DHT22;10358;49.590;11.030;2024-02-15T00:14:44;8.70;99.90
20398;DHT22;10358;49.590;11.030;2024-02-15T00:17:10;8.70;99.90
20398;DHT22;10358;49.590;11.030;2024-02-15T00:19:37;8.70;99.90
20398;DHT22;10358;49.590;11.030;2024-02-15T00:22:05;8.70;99.90
20398;DHT22;10358;49.590;11.030;2024-02-15T00:24:31;8.70;99.90
20398;DHT22;10358;49.590;11.030;2024-02-15T00:26:57;8.70;99.90
20398;DHT22;10358;49.590;11.030;2024-02-15T00:29:22;8.70;99.90
20398;DHT22;10358;49.590;11.030;2024-02-15T00:31:48;8.70;99.90
20398;DHT22;10358;49.590;11.030;2024-02-15T00:34:15;8.70;99.90
20398;DHT22;10358;49.590;11.030;2024-02-15T00:36:45;8.70;99.90
20398;DHT22;10358;49.590;11.030;2024-02-15T00:39:11;8.70;99.90
20398;DHT22;10358;49.590;11.030;2024-02-15T00:41:43;8.70;99.90
20398;DHT22;10358;49.590;11.030;2024-02-15T00:44:09;8.70;99.90
20398;DHT22;10358;49.590;11.030;2024-02-15T00:46:38;8.70;99.90
20398;DHT22;10358;49.590;11.030;2024-02-15T00:49:04;8.70;99.90
20398;DHT22;10358;49.590;11.030;2024-02-15T00:51:35;8.70;99.90
20398;DHT22;10358;49.590;11.030;2024-02-15T00:54:01;8.70;99.90
20398;DHT22;10358;49.590;11.030;2024-02-15T00:56:27;8.70;99.90
20398;DHT22;10358;49.590;11.030;2024-02-15T00:58:53;8.80;99.90
20398;DHT22;10358;49.590;11.030;2024-02-15T01:01:18;8.80;99.90
20398;DHT22;10358;49.590;11.030;2024-02-15T01:03:44;8.80;99.90
20398;DHT22;10358;49.590;11.030;2024-02-15T01:06:09;8.80;99.90
20398;DHT22;10358;49.590;11.030;2024-02-15T01:08:35;8.80;99.90
20398;DHT22;10358;49.590;11.030;2024-02-15T01:11:02;8.80;99.90
20398;DHT22;10358;49.590;11.030;2024-02-15T01:13:27;8.80;99.90
20398;DHT22;10358;49.590;11.030;2024-02-15T01:15:53;8.80;99.90
20398;DHT22;10358;49.590;11.030;2024-02-15T01:18:18;8.80;99.90
20398;DHT22;10358;49.590;11.030;2024-02-15T01:20:44;8.80;99.90
20398;DHT22;10358;49.590;11.030;2024-02-15T01:23:10;8.80;99.90
20398;DHT22;10358;49.590;11.030;2024-02-15T01:25:36;8.80;99.90
20398;DHT22;10358;49.590;11.030;2024-02-15T01:28:01;8.80;99.90
20398;DHT22;10358;49.590;11.030;2024-02-15T01:30:27;8.80;99.90
20398;DHT22;10358;49.590;11.030;2024-02-15T01:32:54;8.80;99.90
20398;DHT22;10358;49.590;11.030;2024-02-15T01:35:20;8.80;99.90
20398;DHT22;10358;49.590;11.030;2024-02-15T01:37:45;8.80;99.90
20398;DHT22;10358;49.590;11.030;2024-02-15T01:40:11;8.80;99.90
20398;DHT22;10358;49.590;11.030;2024-02-15T01:42:38;8.80;99.90
20398;DHT22;10358;49.590;11.030;2024-02-15T01:45:05;8.80;99.90
20398;DHT22;10358;49.590;11.030;2024-02-15T01:47:31;8.80;99.90
20398;DHT22;10358;49.590;11.030;2024-02-15T01:49:57;8.80;99.90
20398;DHT22;10358;49.590;11.030;2024-02-15T01:52:23;8.80;99.90
20398;DHT22;10358;49.590;11.030;2024-02-15T01:54:51;8.80;99.90
20398;DHT22;10358;49.590;11.030;2024-02-15T01:57:17;8.80;99.90
20398;DHT22;10358;49.590;11.030;2024-02-15T01:59:43;8.80;99.90
20398;DHT22;10358;49.590;11.030;2024-02-15T02:02:11;8.80;99.90
20398;DHT22;10358;49.590;11.030;2024-02-15T02:04:38;8.80;99.90
20398;DHT22;10358;49.590;11.030;2024-02-15T02:07:04;8.80;99.90
20398;DHT22;10358;49.590;11.030;2024-02-15T02:09:30;8.80;99.90
20398;DHT22;10358;49.590;11.030;2024-02-15T02:11:55;8.80;99.90
20398;DHT22;10358;49.590;11.030;2024-02-15T02:14:21;8.70;99.90
20398;DHT22;10358;49.590;11.030;2024-02-15T02:16:46;8.70;99.90
20398;DHT22;10358;49.590;11.030;2024-02-15T02:19:12;8.70;99.90
20398;DHT22;10358;49.590;11.030;2024-02-15T02:21:38;8.70;99.90
20398;DHT22;10358;49.590;11.030;2024-02-15T02:24:13;8.80;99.90
20398;DHT22;10358;49.590;11.030;2024-02-15T02:26:39;8.80;99.90
20398;DHT22;10358;49.590;11.030;2024-02-15T02:29:05;8.80;99.90
20398;DHT22;10358;49.590;11.030;2024-02-15T02:31:34;8.80;99.90
20398;DHT22;10358;49.590;11.030;2024-02-15T02:34:00;8.80;99.90
20398;DHT22;10358;49.590;11.030;2024-02-15T02:36:26;8.80;99.90
20398;DHT22;10358;49.590;11.030;2024-02-15T02:38:52;8.80;99.90
20398;DHT22;10358;49.590;11.030;2024-02-15T02:41:17;8.80;99.90
20398;DHT22;10358;49.590;11.030;2024-02-15T02:43:44;8.80;99.90
20398;DHT22;10358;49.590;11.030;2024-02-15T02:46:11;8.80;99.90
20398;DHT22;10358;49.590;11.030;2024-02-15T02:48:40;8.80;99.90
20398;DHT22;10358;49.590;11.030;2024-02-15T02:51:07;8.80;99.90
20398;DHT22;10358;49.590;11.030;2024-02-15T02:53:33;8.80;99.90
20398;DHT22;10358;49.590;11.030;2024-02-15T02:55:59;8.80;99.90
20398;DHT22;10358;49.590;11.030;2024-02-15T02:58:25;8.80;99.90
20398;DHT22;10358;49.590;11.030;2024-02-15T03:00:51;8.80;99.90
20398;DHT22;10358;49.590;11.030;2024-02-15T03:03:17;8.90;99.90
20398;DHT22;10358;49.590;11.030;2024-02-15T03:05:44;8.90;99.90
20398;DHT22;10358;49.590;11.030;2024-02-15T03:08:10;8.90;99.90
20398;DHT22;10358;49.590;11.030;2024-02-15T03:10:37;8.90;99.90
20398;DHT22;10358;49.590;11.030;2024-02-15T03:13:03;8.80;99.90
20398;DHT22;10358;49.590;11.030;2024-02-15T03:15:30;8.80;99.90
20398;DHT22;10358;49.590;11.030;2024-02-15T03:17:55;8.80;99.90
20398;DHT22;10358;49.590;11.030;2024-02-15T03:20:21;8.80;99.90
20398;DHT22;10358;49.590;11.030;2024-02-15T03:22:53;8.80;99.90
20398;DHT22;10358;49.590;11.030;2024-02-15T03:25:19;8.80;99.90
20398;DHT22;10358;49.590;11.030;2024-02-15T03:27:52;8.80;99.90
20398;DHT22;10358;49.590;11.030;2024-02-15T03:30:19;8.80;99.90
20398;DHT22;10358;49.590;11.030;2024-02-15T03:32:45;8.70;99.90
20398;DHT22;10358;49.590;11.030;2024-02-15T03:35:11;8.70;99.90
20398;DHT22;10358;49.590;11.030;2024-02-15T03:37:39;8.70;99.90
20398;DHT22;10358;49.590;11.030;2024-02-15T03:40:05;8.70;99.90
20398;DHT22;10358;49.590;11.030;2024-02-15T03:42:31;8.70;99.90
20398;DHT22;10358;49.590;11.030;2024-02-15T03:44:57;8.70;99.90
20398;DHT22;10358;49.590;11.030;2024-02-15T03:47:22;8.60;99.90
20398;DHT22;10358;49.590;11.030;2024-02-15T03:49:49;8.60;99.90
20398;DHT22;10358;49.590;11.030;2024-02-15T03:52:14;8.60;99.90
20398;DHT22;10358;49.590;11.030;2024-02-15T03:54:40;8.60;99.90
20398;DHT22;10358;49.590;11.030;2024-02-15T03:57:08;8.60;99.90
20398;DHT22;10358;49.590;11.030;2024-02-15T03:59:34;8.60;99.90
20398;DHT22;10358;49.590;11.030;2024-02-15T04:02:00;8.60;99.90
20398;DHT22;10358;49.590;11.030;2024-02-15T04:04:28;8.60;99.90
20398;DHT22;10358;49.590;11.030;2024-02-15T04:06:55;8.50;99.90
20398;DHT22;10358;49.590;11.030;2024-02-15T04:09:21;8.50;99.90
20398;DHT22;10358;49.590;11.030;2024-02-15T04:11:47;8.50;99.90
20398;DHT22;10358;49.590;11.030;2024-02-15T04:14:18;8.40;99.90
20398;DHT22;10358;49.590;11.030;2024-02-15T04:16:44;8.40;99.90
20398;DHT22;10358;49.590;11.030;2024-02-15T04:19:10;8.30;99.90
20398;DHT22;10358;49.590;11.030;2024-02-15T04:21:36;8.30;99.90
20398;DHT22;10358;49.590;11.030;2024-02-15T04:24:02;8.20;99.90
20398;DHT22;10358;49.590;11.030;2024-02-15T04:26:27;8.20;99.90
20398;DHT22;10358;49.590;11.030;2024-02-15T04:28:55;8.20;99.90
20398;DHT22;10358;49.590;11.030;2024-02-15T04:31:21;8.20;99.90
20398;DHT22;10358;49.590;11.030;2024-02-15T04:33:55;8.10;99.90
20398;DHT22;10358;49.590;11.030;2024-02-15T04:36:21;8.10;99.90
20398;DHT22;10358;49.590;11.030;2024-02-15T04:38:51;8.10;99.90
20398;DHT22;10358;49.590;11.030;2024-02-15T04:41:17;8.10;99.90
20398;DHT22;10358;49.590;11.030;2024-02-15T04:43:51;8.10;99.90
20398;DHT22;10358;49.590;11.030;2024-02-15T04:46:18;8.10;99.90
20398;DHT22;10358;49.590;11.030;2024-02-15T04:48:47;8.00;99.90
20398;DHT22;10358;49.590;11.030;2024-02-15T04:51:15;8.00;99.90
20398;DHT22;10358;49.590;11.030;2024-02-15T04:53:41;8.10;99.90
20398;DHT22;10358;49.590;11.030;2024-02-15T04:56:07;8.10;99.90
20398;DHT22;10358;49.590;11.030;2024-02-15T04:58:42;8.10;99.90
20398;DHT22;10358;49.590;11.030;2024-02-15T05:01:14;8.10;99.90
20398;DHT22;10358;49.590;11.030;2024-02-15T05:03:40;8.00;99.90
20398;DHT22;10358;49.590;11.030;2024-02-15T05:06:05;8.00;99.90
20398;DHT22;10358;49.590;11.030;2024-02-15T05:08:33;8.00;99.90
20398;DHT22;10358;49.590;11.030;2024-02-15T05:11:00;8.00;99.90
20398;DHT22;10358;49.590;11.030;2024-02-15T05:13:26;8.00;99.90
20398;DHT22;10358;49.590;11.030;2024-02-15T05:15:51;8.00;99.90
20398;DHT22;10358;49.590;11.030;2024-02-15T05:18:17;8.00;99.90
20398;DHT22;10358;49.590;11.030;2024-02-15T05:20:43;8.00;99.90
20398;DHT22;10358;49.590;11.030;2024-02-15T05:23:09;8.00;99.90
20398;DHT22;10358;49.590;11.030;2024-02-15T05:25:34;8.10;99.90
20398;DHT22;10358;49.590;11.030;2024-02-15T05:28:01;8.00;99.90
20398;DHT22;10358;49.590;11.030;2024-02-15T05:30:27;8.00;99.90
20398;DHT22;10358;49.590;11.030;2024-02-15T05:32:53;8.00;99.90
20398;DHT22;10358;49.590;11.030;2024-02-15T05:35:19;8.00;99.90
20398;DHT22;10358;49.590;11.030;2024-02-15T05:37:45;8.10;99.90
20398;DHT22;10358;49.590;11.030;2024-02-15T05:40:11;8.10;99.90
20398;DHT22;10358;49.590;11.030;2024-02-15T05:42:43;8.10;99.90
20398;DHT22;10358;49.590;11.030;2024-02-15T05:47:51;8.20;99.90
20398;DHT22;10358;49.590;11.030;2024-02-15T05:50:16;8.20;99.90
20398;DHT22;10358;49.590;11.030;2024-02-15T05:52:46;8.20;99.90
20398;DHT22;10358;49.590;11.030;2024-02-15T05:55:12;8.20;99.90
20398;DHT22;10358;49.590;11.030;2024-02-15T05:57:43;8.20;99.90
20398;DHT22;10358;49.590;11.030;2024-02-15T06:00:09;8.20;99.90
20398;DHT22;10358;49.590;11.030;2024-02-15T06:02:34;8.20;99.90
20398;DHT22;10358;49.590;11.030;2024-02-15T06:05:00;8.20;99.90
20398;DHT22;10358;49.590;11.030;2024-02-15T06:07:29;8.20;99.90
20398;DHT22;10358;49.590;11.030;2024-02-15T06:09:59;8.20;99.90
20398;DHT22;10358;49.590;11.030;2024-02-15T06:12:29;8.20;99.90
20398;DHT22;10358;49.590;11.030;2024-02-15T06:14:54;8.30;99.90
20398;DHT22;10358;49.590;11.030;2024-02-15T06:17:20;8.30;99.90
20398;DHT22;10358;49.590;11.030;2024-02-15T06:19:46;8.30;99.90
20398;DHT22;10358;49.590;11.030;2024-02-15T06:22:11;8.30;99.90
20398;DHT22;10358;49.590;11.030;2024-02-15T06:24:38;8.30;99.90
20398;DHT22;10358;49.590;11.030;2024-02-15T06:27:04;8.30;99.90
20398;DHT22;10358;49.590;11.030;2024-02-15T06:29:31;8.30;99.90
20398;DHT22;10358;49.590;11.030;2024-02-15T06:32:15;8.30;99.90
20398;DHT22;10358;49.590;11.030;2024-02-15T06:34:59;8.40;99.90
20398;DHT22;10358;49.590;11.030;2024-02-15T06:37:43;8.40;99.90
20398;DHT22;10358;49.590;11.030;2024-02-15T06:40:28;8.40;99.90
20398;DHT22;10358;49.590;11.030;2024-02-15T06:42:54;8.40;99.90
20398;DHT22;10358;49.590;11.030;2024-02-15T06:45:20;8.40;99.90
20398;DHT22;10358;49.590;11.030;2024-02-15T06:47:45;8.40;99.90
20398;DHT22;10358;49.590;11.030;2024-02-15T06:50:12;8.40;99.90
20398;DHT22;10358;49.590;11.030;2024-02-15T06:52:39;8.40;99.90
20398;DHT22;10358;49.590;11.030;2024-02-15T06:55:08;8.40;99.90
20398;DHT22;10358;49.590;11.030;2024-02-15T06:57:35;8.50;99.90
20398;DHT22;10358;49.590;11.030;2024-02-15T07:00:06;8.50;99.90
20398;DHT22;10358;49.590;11.030;2024-02-15T07:02:35;8.50;99.90
20398;DHT22;10358;49.590;11.030;2024-02-15T07:05:01;8.50;99.90
20398;DHT22;10358;49.590;11.030;2024-02-15T07:07:28;8.60;99.90
20398;DHT22;10358;49.590;11.030;2024-02-15T07:09:53;8.60;99.90
20398;DHT22;10358;49.590;11.030;2024-02-15T07:12:19;8.60;99.90
20398;DHT22;10358;49.590;11.030;2024-02-15T07:14:47;8.60;99.90
20398;DHT22;10358;49.590;11.030;2024-02-15T07:17:13;8.60;99.90
20398;DHT22;10358;49.590;11.030;2024-02-15T07:19:43;8.70;99.90
20398;DHT22;10358;49.590;11.030;2024-02-15T07:22:10;8.80;99.90
20398;DHT22;10358;49.590;11.030;2024-02-15T07:24:35;8.90;99.90
20398;DHT22;10358;49.590;11.030;2024-02-15T07:27:04;8.90;99.90
20398;DHT22;10358;49.590;11.030;2024-02-15T07:29:30;9.00;99.90
20398;DHT22;10358;49.590;11.030;2024-02-15T07:31:57;9.00;99.90
20398;DHT22;10358;49.590;11.030;2024-02-15T07:34:23;9.10;99.90
20398;DHT22;10358;49.590;11.030;2024-02-15T07:36:50;9.20;99.90
20398;DHT22;10358;49.590;11.030;2024-02-15T07:39:15;9.20;99.90
20398;DHT22;10358;49.590;11.030;2024-02-15T07:41:48;9.10;99.90
20398;DHT22;10358;49.590;11.030;2024-02-15T07:44:15;9.30;99.90
20398;DHT22;10358;49.590;11.030;2024-02-15T07:46:41;9.30;99.90
20398;DHT22;10358;49.590;11.030;2024-02-15T07:49:07;9.30;99.90
20398;DHT22;10358;49.590;11.030;2024-02-15T07:51:33;9.30;99.90
20398;DHT22;10358;49.590;11.030;2024-02-15T07:53:59;9.30;99.90
20398;DHT22;10358;49.590;11.030;2024-02-15T07:56:26;9.40;99.90
20398;DHT22;10358;49.590;11.030;2024-02-15T07:58:52;9.40;99.90
20398;DHT22;10358;49.590;11.030;2024-02-15T08:01:18;9.40;99.90
20398;DHT22;10358;49.590;11.030;2024-02-15T08:03:47;9.50;99.90
20398;DHT22;10358;49.590;11.030;2024-02-15T08:06:14;9.50;99.90
20398;DHT22;10358;49.590;11.030;2024-02-15T08:08:41;9.60;99.90
20398;DHT22;10358;49.590;11.030;2024-02-15T08:11:10;9.70;99.90
20398;DHT22;10358;49.590;11.030;2024-02-15T08:13:42;9.70;99.90
20398;DHT22;10358;49.590;11.030;2024-02-15T08:16:08;9.70;99.90
20398;DHT22;10358;49.590;11.030;2024-02-15T08:18:33;9.80;99.90
20398;DHT22;10358;49.590;11.030;2024-02-15T08:21:01;9.80;99.90
20398;DHT22;10358;49.590;11.030;2024-02-15T08:23:26;9.90;99.90
20398;DHT22;10358;49.590;11.030;2024-02-15T08:25:52;10.00;99.90
20398;DHT22;10358;49.590;11.030;2024-02-15T08:28:19;10.00;99.90
20398;DHT22;10358;49.590;11.030;2024-02-15T08:30:46;10.00;99.90
20398;DHT22;10358;49.590;11.030;2024-02-15T08:33:12;10.10;99.90
20398;DHT22;10358;49.590;11.030;2024-02-15T08:35:38;10.10;99.90
20398;DHT22;10358;49.590;11.030;2024-02-15T08:38:06;10.20;99.90
20398;DHT22;10358;49.590;11.030;2024-02-15T08:40:32;10.30;99.90
20398;DHT22;10358;49.590;11.030;2024-02-15T08:42:57;10.30;99.90
20398;DHT22;10358;49.590;11.030;2024-02-15T08:45:23;10.30;99.90
20398;DHT22;10358;49.590;11.030;2024-02-15T08:47:49;10.30;99.90
20398;DHT22;10358;49.590;11.030;2024-02-15T08:50:18;10.40;99.90
20398;DHT22;10358;49.590;11.030;2024-02-15T08:52:44;10.40;99.90
20398;DHT22;10358;49.590;11.030;2024-02-15T08:55:12;10.50;99.90
20398;DHT22;10358;49.590;11.030;2024-02-15T08:57:40;10.60;99.90
20398;DHT22;10358;49.590;11.030;2024-02-15T09:00:10;10.60;99.90
20398;DHT22;10358;49.590;11.030;2024-02-15T09:02:44;10.70;99.90
20398;DHT22;10358;49.590;11.030;2024-02-15T09:05:10;10.70;99.90
20398;DHT22;10358;49.590;11.030;2024-02-15T09:07:42;10.80;99.90
20398;DHT22;10358;49.590;11.030;2024-02-15T09:10:11;10.90;99.90
20398;DHT22;10358;49.590;11.030;2024-02-15T09:12:37;10.90;99.90
20398;DHT22;10358;49.590;11.030;2024-02-15T09:15:07;11.00;99.90
20398;DHT22;10358;49.590;11.030;2024-02-15T09:17:34;11.10;99.90
20398;DHT22;10358;49.590;11.030;2024-02-15T09:20:25;11.20;99.90
20398;DHT22;10358;49.590;11.030;2024-02-15T09:22:54;11.20;99.90
20398;DHT22;10358;49.590;11.030;2024-02-15T09:25:21;11.30;99.90
20398;DHT22;10358;49.590;11.030;2024-02-15T09:27:48;11.40;99.90
20398;DHT22;10358;49.590;11.030;2024-02-15T09:30:15;11.50;99.90
20398;DHT22;10358;49.590;11.030;2024-02-15T09:32:41;11.50;99.90
20398;DHT22;10358;49.590;11.030;2024-02-15T09:35:08;11.60;99.90
20398;DHT22;10358;49.590;11.030;2024-02-15T09:37:42;11.60;99.90
20398;DHT22;10358;49.590;11.030;2024-02-15T09:40:10;11.70;99.90
20398;DHT22;10358;49.590;11.030;2024-02-15T09:42:38;11.80;99.90
20398;DHT22;10358;49.590;11.030;2024-02-15T09:45:05;11.80;99.90
20398;DHT22;10358;49.590;11.030;2024-02-15T09:47:40;11.90;99.90
20398;DHT22;10358;49.590;11.030;2024-02-15T09:50:14;12.00;99.90
20398;DHT22;10358;49.590;11.030;2024-02-15T09:52:44;12.00;99.90
20398;DHT22;10358;49.590;11.030;2024-02-15T09:55:11;12.00;99.90
20398;DHT22;10358;49.590;11.030;2024-02-15T09:57:42;12.10;99.90
20398;DHT22;10358;49.590;11.030;2024-02-15T10:00:08;12.20;99.90
20398;DHT22;10358;49.590;11.030;2024-02-15T10:02:47;12.30;99.90
20398;DHT22;10358;49.590;11.030;2024-02-15T10:05:13;12.30;99.90
20398;DHT22;10358;49.590;11.030;2024-02-15T10:07:42;12.40;99.90
20398;DHT22;10358;49.590;11.030;2024-02-15T10:10:22;12.50;99.90
20398;DHT22;10358;49.590;11.030;2024-02-15T10:12:52;12.50;99.90
20398;DHT22;10358;49.590;11.030;2024-02-15T10:15:36;12.60;99.90
20398;DHT22;10358;49.590;11.030;2024-02-15T10:18:06;12.70;99.90
20398;DHT22;10358;49.590;11.030;2024-02-15T10:20:37;12.90;99.90
20398;DHT22;10358;49.590;11.030;2024-02-15T10:23:10;13.00;99.90
20398;DHT22;10358;49.590;11.030;2024-02-15T10:25:38;13.00;99.90
20398;DHT22;10358;49.590;11.030;2024-02-15T10:30:34;13.20;99.90
20398;DHT22;10358;49.590;11.030;2024-02-15T10:33:00;13.30;99.90
20398;DHT22;10358;49.590;11.030;2024-02-15T10:35:25;13.30;99.90
20398;DHT22;10358;49.590;11.030;2024-02-15T10:37:51;13.40;99.90
20398;DHT22;10358;49.590;11.030;2024-02-15T10:40:20;13.50;99.90
20398;DHT22;10358;49.590;11.030;2024-02-15T10:42:51;13.50;99.90
20398;DHT22;10358;49.590;11.030;2024-02-15T10:45:17;13.60;99.90
20398;DHT22;10358;49.590;11.030;2024-02-15T10:47:46;13.60;99.90
20398;DHT22;10358;49.590;11.030;2024-02-15T10:50:14;13.60;99.90
20398;DHT22;10358;49.590;11.030;2024-02-15T10:52:55;13.70;99.90
20398;DHT22;10358;49.590;11.030;2024-02-15T10:55:48;13.70;99.90
20398;DHT22;10358;49.590;11.030;2024-02-15T10:58:19;13.80;99.90
20398;DHT22;10358;49.590;11.030;2024-02-15T11:00:47;13.80;99.90
20398;DHT22;10358;49.590;11.030;2024-02-15T11:03:22;13.90;99.90
20398;DHT22;10358;49.590;11.030;2024-02-15T11:05:51;13.90;99.90
20398;DHT22;10358;49.590;11.030;2024-02-15T11:08:17;14.00;99.90
20398;DHT22;10358;49.590;11.030;2024-02-15T11:10:43;14.00;99.90
20398;DHT22;10358;49.590;11.030;2024-02-15T11:13:10;14.10;99.90
20398;DHT22;10358;49.590;11.030;2024-02-15T11:18:02;14.20;99.90
20398;DHT22;10358;49.590;11.030;2024-02-15T11:23:02;14.20;99.90
20398;DHT22;10358;49.590;11.030;2024-02-15T11:25:37;14.30;99.90
20398;DHT22;10358;49.590;11.030;2024-02-15T11:30:56;14.40;99.90
20398;DHT22;10358;49.590;11.030;2024-02-15T11:33:35;14.50;99.90
20398;DHT22;10358;49.590;11.030;2024-02-15T11:36:08;14.50;99.90
20398;DHT22;10358;49.590;11.030;2024-02-15T11:38:36;14.60;99.90
20398;DHT22;10358;49.590;11.030;2024-02-15T11:41:05;14.60;99.90
20398;DHT22;10358;49.590;11.030;2024-02-15T11:46:18;14.70;99.90
20398;DHT22;10358;49.590;11.030;2024-02-15T11:48:48;14.80;99.90
20398;DHT22;10358;49.590;11.030;2024-02-15T11:51:31;14.80;99.90
20398;DHT22;10358;49.590;11.030;2024-02-15T11:54:20;15.00;99.90
20398;DHT22;10358;49.590;11.030;2024-02-15T11:56:55;15.10;99.90
20398;DHT22;10358;49.590;11.030;2024-02-15T11:59:43;15.10;99.90
20398;DHT22;10358;49.590;11.030;2024-02-15T12:02:27;15.20;99.90
20398;DHT22;10358;49.590;11.030;2024-02-15T12:05:11;15.20;99.90
20398;DHT22;10358;49.590;11.030;2024-02-15T12:07:58;15.20;99.90
20398;DHT22;10358;49.590;11.030;2024-02-15T12:10:43;15.20;99.90
20398;DHT22;10358;49.590;11.030;2024-02-15T12:13:27;15.30;99.90
20398;DHT22;10358;49.590;11.030;2024-02-15T12:16:15;15.30;99.90
20398;DHT22;10358;49.590;11.030;2024-02-15T12:18:59;15.30;99.90
20398;DHT22;10358;49.590;11.030;2024-02-15T12:21:26;15.30;99.90
20398;DHT22;10358;49.590;11.030;2024-02-15T12:23:53;15.20;99.90
20398;DHT22;10358;49.590;11.030;2024-02-15T12:26:19;15.30;99.90
20398;DHT22;10358;49.590;11.030;2024-02-15T12:28:53;15.30;99.90
20398;DHT22;10358;49.590;11.030;2024-02-15T12:31:20;15.20;99.90
20398;DHT22;10358;49.590;11.030;2024-02-15T12:33:46;15.00;99.90
20398;DHT22;10358;49.590;11.030;2024-02-15T12:36:14;15.00;99.90
20398;DHT22;10358;49.590;11.030;2024-02-15T12:38:39;14.90;99.90
20398;DHT22;10358;49.590;11.030;2024-02-15T12:41:20;14.90;99.90
20398;DHT22;10358;49.590;11.030;2024-02-15T12:43:46;14.90;99.90
20398;DHT22;10358;49.590;11.030;2024-02-15T12:46:19;15.00;99.90
20398;DHT22;10358;49.590;11.030;2024-02-15T12:48:44;15.10;99.90
20398;DHT22;10358;49.590;11.030;2024-02-15T12:51:13;15.20;99.90
20398;DHT22;10358;49.590;11.030;2024-02-15T12:53:40;15.30;99.90
20398;DHT22;10358;49.590;11.030;2024-02-15T12:56:07;15.30;99.90
20398;DHT22;10358;49.590;11.030;2024-02-15T12:58:35;15.40;99.90
20398;DHT22;10358;49.590;11.030;2024-02-15T13:01:01;15.50;99.90
20398;DHT22;10358;49.590;11.030;2024-02-15T13:03:27;15.50;99.90
20398;DHT22;10358;49.590;11.030;2024-02-15T13:05:52;15.60;99.90
20398;DHT22;10358;49.590;11.030;2024-02-15T13:08:18;15.60;99.90
20398;DHT22;10358;49.590;11.030;2024-02-15T13:10:45;15.70;99.90
20398;DHT22;10358;49.590;11.030;2024-02-15T13:13:11;15.80;99.90
20398;DHT22;10358;49.590;11.030;2024-02-15T13:15:39;15.90;99.90
20398;DHT22;10358;49.590;11.030;2024-02-15T13:18:06;16.00;99.90
20398;DHT22;10358;49.590;11.030;2024-02-15T13:20:35;16.10;99.90
20398;DHT22;10358;49.590;11.030;2024-02-15T13:23:04;16.20;99.90
20398;DHT22;10358;49.590;11.030;2024-02-15T13:25:48;16.30;99.90
20398;DHT22;10358;49.590;11.030;2024-02-15T13:28:14;16.40;99.90
20398;DHT22;10358;49.590;11.030;2024-02-15T13:30:41;16.40;99.90
20398;DHT22;10358;49.590;11.030;2024-02-15T13:33:08;16.40;99.90
20398;DHT22;10358;49.590;11.030;2024-02-15T13:35:34;16.50;99.90
20398;DHT22;10358;49.590;11.030;2024-02-15T13:38:01;16.50;99.90
20398;DHT22;10358;49.590;11.030;2024-02-15T13:40:28;16.50;99.90
20398;DHT22;10358;49.590;11.030;2024-02-15T13:42:56;16.60;99.90
20398;DHT22;10358;49.590;11.030;2024-02-15T13:45:39;16.50;99.90
20398;DHT22;10358;49.590;11.030;2024-02-15T13:48:05;16.60;99.90
20398;DHT22;10358;49.590;11.030;2024-02-15T13:50:33;16.70;99.90
20398;DHT22;10358;49.590;11.030;2024-02-15T13:52:58;16.80;99.90
20398;DHT22;10358;49.590;11.030;2024-02-15T13:55:24;16.90;99.90
20398;DHT22;10358;49.590;11.030;2024-02-15T13:57:51;16.90;99.90
20398;DHT22;10358;49.590;11.030;2024-02-15T14:00:18;16.90;99.90
20398;DHT22;10358;49.590;11.030;2024-02-15T14:02:54;17.00;99.90
20398;DHT22;10358;49.590;11.030;2024-02-15T14:05:25;16.90;99.90
20398;DHT22;10358;49.590;11.030;2024-02-15T14:10:24;17.00;99.90
20398;DHT22;10358;49.590;11.030;2024-02-15T14:12:51;17.00;99.90
20398;DHT22;10358;49.590;11.030;2024-02-15T14:15:31;17.10;99.90
20398;DHT22;10358;49.590;11.030;2024-02-15T14:18:07;17.10;99.90
20398;DHT22;10358;49.590;11.030;2024-02-15T14:20:36;17.10;99.90
20398;DHT22;10358;49.590;11.030;2024-02-15T14:23:01;17.10;99.90
20398;DHT22;10358;49.590;11.030;2024-02-15T14:25:31;17.00;99.90
20398;DHT22;10358;49.590;11.030;2024-02-15T14:27:57;17.00;99.90
20398;DHT22;10358;49.590;11.030;2024-02-15T14:30:23;17.00;99.90
20398;DHT22;10358;49.590;11.030;2024-02-15T14:33:07;17.00;99.90
20398;DHT22;10358;49.590;11.030;2024-02-15T14:35:38;17.00;99.90
20398;DHT22;10358;49.590;11.030;2024-02-15T14:38:06;17.00;99.90
20398;DHT22;10358;49.590;11.030;2024-02-15T14:40:37;16.90;99.90
20398;DHT22;10358;49.590;11.030;2024-02-15T14:43:04;16.90;99.90
20398;DHT22;10358;49.590;11.030;2024-02-15T14:45:31;16.80;99.90
20398;DHT22;10358;49.590;11.030;2024-02-15T14:47:58;16.70;99.90
20398;DHT22;10358;49.590;11.030;2024-02-15T14:50:23;16.60;99.90
20398;DHT22;10358;49.590;11.030;2024-02-15T14:52:49;16.50;99.90
20398;DHT22;10358;49.590;11.030;2024-02-15T14:55:14;16.40;99.90
20398;DHT22;10358;49.590;11.030;2024-02-15T14:57:40;16.20;99.90
20398;DHT22;10358;49.590;11.030;2024-02-15T15:00:06;16.20;99.90
20398;DHT22;10358;49.590;11.030;2024-02-15T15:02:40;16.00;99.90
20398;DHT22;10358;49.590;11.030;2024-02-15T15:05:07;15.90;99.90
20398;DHT22;10358;49.590;11.030;2024-02-15T15:07:52;15.80;99.90
20398;DHT22;10358;49.590;11.030;2024-02-15T15:10:36;15.80;99.90
20398;DHT22;10358;49.590;11.030;2024-02-15T15:13:21;15.80;99.90
20398;DHT22;10358;49.590;11.030;2024-02-15T15:15:47;15.80;99.90
20398;DHT22;10358;49.590;11.030;2024-02-15T15:18:13;15.70;99.90
20398;DHT22;10358;49.590;11.030;2024-02-15T15:20:39;15.70;99.90
20398;DHT22;10358;49.590;11.030;2024-02-15T15:23:05;15.60;99.90
20398;DHT22;10358;49.590;11.030;2024-02-15T15:25:33;15.60;99.90
20398;DHT22;10358;49.590;11.030;2024-02-15T15:27:59;15.50;99.90
20398;DHT22;10358;49.590;11.030;2024-02-15T15:30:24;15.40;99.90
20398;DHT22;10358;49.590;11.030;2024-02-15T15:32:50;15.30;99.90
20398;DHT22;10358;49.590;11.030;2024-02-15T15:35:16;15.20;99.90
20398;DHT22;10358;49.590;11.030;2024-02-15T15:37:44;15.20;99.90
20398;DHT22;10358;49.590;11.030;2024-02-15T15:40:11;15.00;99.90
20398;DHT22;10358;49.590;11.030;2024-02-15T15:42:37;15.00;99.90
20398;DHT22;10358;49.590;11.030;2024-02-15T15:45:04;14.90;99.90
20398;DHT22;10358;49.590;11.030;2024-02-15T15:47:30;14.80;99.90
20398;DHT22;10358;49.590;11.030;2024-02-15T15:49:56;14.70;99.90